Main page
METAR-TAF:

METAR-TAF

Airports :

Scatsta Airport

Scatsta, Shetland, Scotland

latitude: 60-26N, longitude: 001-18W, elevation: 22 m

Current weather observation

The report was made 34 minutes ago, at 07:20 UTC
Wind 12 kt from the South/Southeast
Temperature 13°C
Humidity 94%
Pressure 989 hPa
Visibility 10 km or more

METAR: EGPM 180720Z AUTO 16012KT 9999 FEW024/// BKN030/// 13/12 Q0989

Time: 08:54 (07:54 UTC)

Forecast

The report was made 2 hours and 56 minutes ago, at 04:58 UTC
Forecast valid from 18 at 06 UTC to 18 at 15 UTC
Wind 9 kt from the South
Visibility 10 km or more
Few clouds at a height of 2500 ft
Probability 40% :
Temporary
from 18 at 06 UTC to 18 at 15 UTC
Visibility: 6000 m
Broken clouds at a height of 1000 ft
rain

TAF: EGPM 180458Z 1806/1815 18009KT 9999 FEW025 PROB40 TEMPO 1806/1815 6000 RA BKN010

Weather observations and forecasts of more than 4000 airports (METAR and TAF reports).

The available stations are represented by yellow and red dots on the map.

Hover mouse over dot to see the name of the station.

Then click to see weather observations and forecasts.

To change the map : click on the green buttons with a black cross to zoom in, on the green button with a dash to zoom out, or on the green arrows for adjacent maps.


METAR-TAF: